Time;durP1;ratioP1;P1;durP2;ratioP2;P2;SDS_P1;SDS_P2;PMS_P1;PMS_P2;Temp;Humidity;BMP_temperature;BMP_pressure;BME280_temperature;BME280_humidity;BME280_pressure;Samples;Min_cycle;Max_cycle;Signal;HPM_P1;HPM_P2
2021/10/17 00:00:12;;;;;;;;;;;7.80;99.90;;;;;;5012454;28;19965;-71
2021/10/17 00:02:39;;;;;;;;;;;7.80;99.90;;;;;;5010292;28;19963;-72
2021/10/17 00:05:06;;;;;;;;;;;7.80;99.90;;;;;;5012095;28;19960;-72
2021/10/17 00:07:34;;;;;;;;;;;7.70;99.90;;;;;;5005959;28;19949;-72
2021/10/17 00:10:01;;;;;;;;;;;7.70;99.90;;;;;;4996232;28;19966;-72
2021/10/17 00:12:27;;;;;;;;;;;7.60;99.90;;;;;;5006833;28;20413;-71
2021/10/17 00:14:54;;;;;;;;;;;7.60;99.90;;;;;;5003741;28;19951;-71
2021/10/17 00:17:21;;;;;;;;;;;7.60;99.90;;;;;;4993010;28;19952;-72
2021/10/17 00:19:47;;;;;;;;;;;7.60;99.90;;;;;;4992545;28;19959;-71
2021/10/17 00:22:14;;;;;;;;;;;7.70;99.90;;;;;;4997068;28;19975;-73
2021/10/17 00:24:42;;;;;;;;;;;7.70;99.90;;;;;;5011812;28;19952;-72
2021/10/17 00:27:09;;;;;;;;;;;7.70;99.90;;;;;;5010144;28;19992;-71
2021/10/17 00:29:35;;;;;;;;;;;7.70;99.90;;;;;;5011759;28;19956;-72
2021/10/17 00:32:02;;;;;;;;;;;7.50;99.90;;;;;;5010127;28;20336;-72
2021/10/17 00:34:29;;;;;;;;;;;7.50;99.90;;;;;;5010469;28;19950;-71
2021/10/17 00:36:55;;;;;;;;;;;7.60;99.90;;;;;;5009601;28;19953;-72
2021/10/17 00:39:22;;;;;;;;;;;7.70;99.90;;;;;;5011757;28;19959;-71
2021/10/17 00:41:52;;;;;;;;;;;7.70;99.90;;;;;;5003535;28;20852;-71
2021/10/17 00:44:20;;;;;;;;;;;7.80;99.90;;;;;;5010653;28;20410;-72
2021/10/17 00:46:47;;;;;;;;;;;7.80;99.90;;;;;;4995689;28;19954;-72
2021/10/17 00:49:14;;;;;;;;;;;7.80;99.90;;;;;;4992345;28;19997;-71
2021/10/17 00:51:42;;;;;;;;;;;7.80;99.90;;;;;;4991783;28;19980;-71
2021/10/17 00:54:10;;;;;;;;;;;7.70;99.90;;;;;;5011390;28;19962;-71
2021/10/17 00:56:36;;;;;;;;;;;7.80;99.90;;;;;;5010578;28;20312;-72
2021/10/17 00:59:05;;;;;;;;;;;7.80;99.90;;;;;;5011599;28;20051;-72
2021/10/17 01:01:32;;;;;;;;;;;7.80;99.90;;;;;;5010876;28;19979;-71
2021/10/17 01:03:58;;;;;;;;;;;7.80;99.90;;;;;;4991528;28;20027;-72
2021/10/17 01:06:25;;;;;;;;;;;7.80;99.90;;;;;;4991540;28;19959;-72
2021/10/17 01:08:52;;;;;;;;;;;7.90;99.90;;;;;;5009496;28;19962;-71
2021/10/17 01:11:18;;;;;;;;;;;7.90;99.90;;;;;;5010994;28;20084;-72
2021/10/17 01:13:45;;;;;;;;;;;7.90;99.90;;;;;;4991469;28;19953;-72
2021/10/17 01:16:13;;;;;;;;;;;7.90;99.90;;;;;;4991626;28;19959;-71
2021/10/17 01:18:40;;;;;;;;;;;7.90;99.90;;;;;;4992224;28;20408;-72
2021/10/17 01:21:08;;;;;;;;;;;7.90;99.90;;;;;;4991964;28;19958;-72
2021/10/17 01:23:34;;;;;;;;;;;7.80;99.90;;;;;;5007084;28;19963;-72
2021/10/17 01:26:01;;;;;;;;;;;7.80;99.90;;;;;;5011088;28;20045;-72
2021/10/17 01:28:28;;;;;;;;;;;7.80;99.90;;;;;;5008907;28;19976;-72
2021/10/17 01:30:54;;;;;;;;;;;7.80;99.90;;;;;;5009971;28;19982;-72
2021/10/17 01:33:23;;;;;;;;;;;7.90;99.90;;;;;;5008575;28;20454;-72
2021/10/17 01:35:49;;;;;;;;;;;7.90;99.90;;;;;;5010952;28;19961;-71
2021/10/17 01:38:17;;;;;;;;;;;7.90;99.90;;;;;;5009372;28;19971;-72
2021/10/17 01:40:44;;;;;;;;;;;7.90;99.90;;;;;;4998294;28;19957;-71
2021/10/17 01:43:10;;;;;;;;;;;8.00;99.90;;;;;;5002731;28;19965;-71
2021/10/17 01:45:37;;;;;;;;;;;8.00;99.90;;;;;;5003335;28;19961;-71
2021/10/17 01:48:04;;;;;;;;;;;8.00;99.90;;;;;;5003050;28;19961;-72
2021/10/17 01:50:31;;;;;;;;;;;8.10;99.90;;;;;;5010757;28;19989;-72
2021/10/17 01:52:57;;;;;;;;;;;8.00;99.90;;;;;;5009089;28;19960;-71
2021/10/17 01:55:25;;;;;;;;;;;8.10;99.90;;;;;;4994450;28;20447;-72
2021/10/17 01:57:52;;;;;;;;;;;8.10;99.90;;;;;;5001124;28;19985;-72
2021/10/17 02:00:18;;;;;;;;;;;8.10;99.90;;;;;;5009512;28;19973;-72
2021/10/17 02:02:45;;;;;;;;;;;8.10;99.90;;;;;;5000386;28;20034;-71
2021/10/17 02:05:12;;;;;;;;;;;8.10;99.90;;;;;;4991201;28;20366;-72
2021/10/17 02:07:38;;;;;;;;;;;8.10;99.90;;;;;;4998741;28;19959;-72
2021/10/17 02:10:06;;;;;;;;;;;8.10;99.90;;;;;;5010470;28;19956;-72
2021/10/17 02:12:34;;;;;;;;;;;8.10;99.90;;;;;;5008753;28;19958;-72
2021/10/17 02:15:04;;;;;;;;;;;8.10;99.90;;;;;;5004359;28;20331;-71
2021/10/17 02:17:31;;;;;;;;;;;8.10;99.90;;;;;;4991152;28;19956;-72
2021/10/17 02:19:58;;;;;;;;;;;8.10;99.90;;;;;;4990898;28;20388;-72
2021/10/17 02:22:25;;;;;;;;;;;8.10;99.90;;;;;;4997217;28;20326;-71
2021/10/17 02:24:51;;;;;;;;;;;8.10;99.90;;;;;;5010387;28;19963;-71
2021/10/17 02:27:18;;;;;;;;;;;8.20;99.90;;;;;;5007578;28;19958;-71
2021/10/17 02:29:46;;;;;;;;;;;8.20;99.90;;;;;;5010100;28;19956;-72
2021/10/17 02:32:12;;;;;;;;;;;8.10;99.90;;;;;;5008110;28;19973;-72
2021/10/17 02:34:39;;;;;;;;;;;8.10;99.90;;;;;;5009969;28;19956;-72
2021/10/17 02:37:06;;;;;;;;;;;8.10;99.90;;;;;;5008163;28;20331;-71
2021/10/17 02:39:32;;;;;;;;;;;8.10;99.90;;;;;;4996407;28;20333;-71
2021/10/17 02:41:59;;;;;;;;;;;8.10;99.90;;;;;;4992235;28;20419;-72
2021/10/17 02:44:26;;;;;;;;;;;8.10;99.90;;;;;;5009725;28;19971;-72
2021/10/17 02:46:54;;;;;;;;;;;8.10;99.90;;;;;;4995195;28;19957;-72
2021/10/17 02:49:20;;;;;;;;;;;8.10;99.90;;;;;;5010091;28;20337;-72
2021/10/17 02:51:47;;;;;;;;;;;8.10;99.90;;;;;;5007760;28;19982;-73
2021/10/17 02:54:13;;;;;;;;;;;8.20;99.90;;;;;;4990330;28;20334;-72
2021/10/17 02:56:40;;;;;;;;;;;8.20;99.90;;;;;;4990284;28;19960;-72
2021/10/17 02:59:07;;;;;;;;;;;8.20;99.90;;;;;;4990797;28;20397;-72
2021/10/17 03:01:33;;;;;;;;;;;8.20;99.90;;;;;;4989666;28;20023;-72
2021/10/17 03:04:01;;;;;;;;;;;8.20;99.90;;;;;;5009079;28;20065;-71
2021/10/17 03:06:28;;;;;;;;;;;8.20;99.90;;;;;;5009475;28;19965;-72
2021/10/17 03:08:55;;;;;;;;;;;8.20;99.90;;;;;;4994169;28;20165;-71
2021/10/17 03:11:22;;;;;;;;;;;8.20;99.90;;;;;;4990380;28;19972;-72
2021/10/17 03:13:48;;;;;;;;;;;8.20;99.90;;;;;;4996974;28;19968;-71
2021/10/17 03:16:15;;;;;;;;;;;8.20;99.90;;;;;;4990476;28;19961;-71
2021/10/17 03:18:42;;;;;;;;;;;8.10;99.90;;;;;;4990307;28;19971;-72
2021/10/17 03:21:10;;;;;;;;;;;8.10;99.90;;;;;;4990127;28;19989;-71
2021/10/17 03:23:36;;;;;;;;;;;8.20;99.90;;;;;;5005710;28;19963;-72
2021/10/17 03:26:03;;;;;;;;;;;8.20;99.90;;;;;;5009953;28;19960;-73
2021/10/17 03:28:30;;;;;;;;;;;8.30;99.90;;;;;;5010441;28;20494;-71
2021/10/17 03:30:56;;;;;;;;;;;8.30;99.90;;;;;;5013132;28;19986;-70
2021/10/17 03:33:23;;;;;;;;;;;8.30;99.90;;;;;;5011328;28;20049;-71
2021/10/17 03:35:50;;;;;;;;;;;8.30;99.90;;;;;;5013210;28;20349;-72
2021/10/17 03:38:18;;;;;;;;;;;8.30;99.90;;;;;;5009845;28;19960;-72
2021/10/17 03:40:44;;;;;;;;;;;8.30;99.90;;;;;;5007166;28;19965;-72
2021/10/17 03:43:11;;;;;;;;;;;8.30;99.90;;;;;;5005711;28;19958;-72
2021/10/17 03:45:39;;;;;;;;;;;8.30;99.90;;;;;;5005642;28;19959;-72
2021/10/17 03:48:05;;;;;;;;;;;8.40;99.90;;;;;;5005033;28;20067;-72
2021/10/17 03:50:32;;;;;;;;;;;8.50;99.90;;;;;;5012619;28;19967;-71
2021/10/17 03:52:59;;;;;;;;;;;8.50;99.90;;;;;;5010895;28;20321;-71
2021/10/17 03:55:27;;;;;;;;;;;8.50;99.90;;;;;;4996457;28;20454;-72
2021/10/17 03:57:53;;;;;;;;;;;8.50;99.90;;;;;;5001185;28;19963;-72
2021/10/17 04:00:21;;;;;;;;;;;8.40;99.90;;;;;;5012382;28;19969;-72
2021/10/17 04:02:48;;;;;;;;;;;8.40;99.90;;;;;;5002405;28;21280;-72
2021/10/17 04:05:15;;;;;;;;;;;8.40;99.90;;;;;;4992579;28;20323;-72
2021/10/17 04:07:41;;;;;;;;;;;8.40;99.90;;;;;;5000048;28;19963;-72
2021/10/17 04:10:09;;;;;;;;;;;8.40;99.90;;;;;;4993178;28;19966;-72
2021/10/17 04:12:36;;;;;;;;;;;8.40;99.90;;;;;;5000016;28;19980;-72
2021/10/17 04:15:03;;;;;;;;;;;8.30;99.90;;;;;;5010470;28;19963;-72
2021/10/17 04:17:30;;;;;;;;;;;8.40;99.90;;;;;;4992884;28;19962;-72
2021/10/17 04:19:57;;;;;;;;;;;8.40;99.90;;;;;;4992693;28;19963;-72
2021/10/17 04:22:23;;;;;;;;;;;8.40;99.90;;;;;;4998412;28;19966;-72
2021/10/17 04:24:50;;;;;;;;;;;8.40;99.90;;;;;;5012277;28;20325;-72
2021/10/17 04:27:17;;;;;;;;;;;8.50;99.90;;;;;;5010697;28;19971;-71
2021/10/17 04:29:45;;;;;;;;;;;8.50;99.90;;;;;;5012246;28;20338;-71
2021/10/17 04:32:11;;;;;;;;;;;8.50;99.90;;;;;;5009559;28;20400;-71
2021/10/17 04:34:38;;;;;;;;;;;8.60;99.90;;;;;;5010543;28;20326;-72
2021/10/17 04:37:06;;;;;;;;;;;8.60;99.90;;;;;;4998898;28;20415;-72
2021/10/17 04:39:34;;;;;;;;;;;8.50;99.90;;;;;;5011982;28;20486;-72
2021/10/17 04:42:00;;;;;;;;;;;8.60;99.90;;;;;;5009902;28;19964;-71
2021/10/17 04:44:27;;;;;;;;;;;8.60;99.90;;;;;;5008269;28;19957;-71
2021/10/17 04:46:55;;;;;;;;;;;8.60;99.90;;;;;;4995543;28;19957;-72
2021/10/17 04:49:25;;;;;;;;;;;8.60;99.90;;;;;;5012106;28;19964;-71
2021/10/17 04:51:51;;;;;;;;;;;8.60;99.90;;;;;;5010083;28;19975;-72
2021/10/17 04:54:18;;;;;;;;;;;8.70;99.90;;;;;;5011571;28;19957;-71
2021/10/17 04:56:45;;;;;;;;;;;8.70;99.90;;;;;;5009986;28;19954;-72
2021/10/17 04:59:13;;;;;;;;;;;8.70;99.90;;;;;;5011647;28;19960;-72
2021/10/17 05:01:39;;;;;;;;;;;8.70;99.90;;;;;;5008961;28;19976;-72
2021/10/17 05:04:07;;;;;;;;;;;8.70;99.90;;;;;;4992182;28;20412;-72
2021/10/17 05:06:34;;;;;;;;;;;8.70;99.90;;;;;;4991976;28;19962;-72
2021/10/17 05:09:01;;;;;;;;;;;8.80;99.90;;;;;;4991749;28;19956;-72
2021/10/17 05:11:27;;;;;;;;;;;8.80;99.90;;;;;;4991552;28;20450;-72
2021/10/17 05:13:54;;;;;;;;;;;8.70;99.90;;;;;;5001108;28;19958;-73
2021/10/17 05:16:21;;;;;;;;;;;8.70;99.90;;;;;;4998350;28;20052;-73
2021/10/17 05:18:47;;;;;;;;;;;8.70;99.90;;;;;;4992098;28;19960;-73
2021/10/17 05:21:15;;;;;;;;;;;8.60;99.90;;;;;;4991430;28;20044;-71
2021/10/17 05:23:42;;;;;;;;;;;8.60;99.90;;;;;;5007881;28;19964;-73
2021/10/17 05:26:09;;;;;;;;;;;8.60;99.90;;;;;;5011054;28;20005;-73
2021/10/17 05:28:36;;;;;;;;;;;8.70;99.90;;;;;;5006065;28;19956;-71
2021/10/17 05:31:03;;;;;;;;;;;8.60;99.90;;;;;;4993997;28;20032;-73
2021/10/17 05:33:30;;;;;;;;;;;8.70;99.90;;;;;;5009045;28;20004;-70
2021/10/17 05:35:57;;;;;;;;;;;8.70;99.90;;;;;;4992603;28;19955;-71
2021/10/17 05:38:25;;;;;;;;;;;8.70;99.90;;;;;;5006435;28;19953;-71
2021/10/17 05:40:52;;;;;;;;;;;8.70;99.90;;;;;;5011062;28;19963;-71
2021/10/17 05:43:18;;;;;;;;;;;8.70;99.90;;;;;;5009399;28;20046;-71
2021/10/17 05:45:45;;;;;;;;;;;8.70;99.90;;;;;;4996027;28;20446;-71
2021/10/17 05:48:12;;;;;;;;;;;8.70;99.90;;;;;;4991502;28;20434;-72
2021/10/17 05:50:38;;;;;;;;;;;8.70;99.90;;;;;;4990750;28;19961;-71
2021/10/17 05:53:05;;;;;;;;;;;8.70;99.90;;;;;;4991338;28;20008;-71
2021/10/17 05:55:33;;;;;;;;;;;8.80;99.90;;;;;;4990375;28;19956;-71
2021/10/17 05:58:00;;;;;;;;;;;8.80;99.90;;;;;;5008949;28;20416;-72
2021/10/17 06:00:26;;;;;;;;;;;8.80;99.90;;;;;;5009486;28;19977;-71
2021/10/17 06:02:53;;;;;;;;;;;8.80;99.90;;;;;;5009037;28;20338;-72
2021/10/17 06:05:20;;;;;;;;;;;8.80;99.90;;;;;;5010410;28;19957;-72
2021/10/17 06:07:46;;;;;;;;;;;8.80;99.90;;;;;;5004971;28;19958;-71
2021/10/17 06:10:13;;;;;;;;;;;8.80;99.90;;;;;;5008564;28;20322;-71
2021/10/17 06:12:42;;;;;;;;;;;8.70;99.90;;;;;;5005762;28;19982;-71
2021/10/17 06:15:10;;;;;;;;;;;8.70;99.90;;;;;;5009849;28;20446;-71
2021/10/17 06:17:37;;;;;;;;;;;8.70;99.90;;;;;;4991086;28;19950;-72
2021/10/17 06:20:07;;;;;;;;;;;8.60;99.90;;;;;;4991069;28;20406;-73
2021/10/17 06:22:33;;;;;;;;;;;8.60;99.90;;;;;;4997796;28;19995;-72
2021/10/17 06:25:00;;;;;;;;;;;8.60;99.90;;;;;;5009965;28;19964;-73
2021/10/17 06:27:26;;;;;;;;;;;8.50;99.90;;;;;;5008996;28;19949;-73
2021/10/17 06:29:54;;;;;;;;;;;8.50;99.90;;;;;;4996380;28;19978;-73
2021/10/17 06:32:21;;;;;;;;;;;8.40;99.90;;;;;;4995091;28;19925;-73
2021/10/17 06:34:48;;;;;;;;;;;8.50;99.90;;;;;;4990432;28;19988;-72
2021/10/17 06:37:14;;;;;;;;;;;8.50;99.90;;;;;;4993779;28;20467;-73
2021/10/17 06:39:41;;;;;;;;;;;8.50;99.90;;;;;;5010285;28;19958;-72
2021/10/17 06:42:08;;;;;;;;;;;8.40;99.90;;;;;;5008054;28;19956;-73
2021/10/17 06:44:36;;;;;;;;;;;8.40;99.90;;;;;;5009904;28;19961;-73
2021/10/17 06:47:04;;;;;;;;;;;8.50;99.90;;;;;;5007783;28;19989;-73
2021/10/17 06:49:31;;;;;;;;;;;8.50;99.90;;;;;;5009750;28;19982;-72
2021/10/17 06:51:57;;;;;;;;;;;8.40;99.90;;;;;;5006758;28;19992;-73
2021/10/17 06:54:24;;;;;;;;;;;8.40;99.90;;;;;;5008716;28;19959;-72
2021/10/17 06:56:51;;;;;;;;;;;8.40;99.90;;;;;;5005746;28;19963;-72
2021/10/17 06:59:17;;;;;;;;;;;8.40;99.90;;;;;;4989995;28;19976;-73
2021/10/17 07:01:44;;;;;;;;;;;8.40;99.90;;;;;;4989134;28;19979;-72
2021/10/17 07:04:12;;;;;;;;;;;8.50;99.90;;;;;;5009557;28;20420;-73
2021/10/17 07:06:39;;;;;;;;;;;8.60;99.90;;;;;;5007962;28;20633;-73
2021/10/17 07:09:06;;;;;;;;;;;8.70;99.90;;;;;;5002067;28;19960;-73
2021/10/17 07:11:33;;;;;;;;;;;8.90;99.90;;;;;;5009152;28;20067;-73
2021/10/17 07:14:00;;;;;;;;;;;8.90;99.90;;;;;;4992361;28;19983;-73
2021/10/17 07:16:26;;;;;;;;;;;9.00;99.90;;;;;;4990273;28;20328;-72
2021/10/17 07:18:53;;;;;;;;;;;9.10;99.90;;;;;;5005096;28;20027;-73
2021/10/17 07:21:21;;;;;;;;;;;9.20;99.90;;;;;;5005411;28;19958;-73
2021/10/17 07:23:48;;;;;;;;;;;9.40;99.90;;;;;;5008144;28;19963;-72
2021/10/17 07:26:14;;;;;;;;;;;9.60;99.90;;;;;;5008399;28;19981;-72
2021/10/17 07:28:41;;;;;;;;;;;9.80;99.90;;;;;;5007693;28;20025;-72
2021/10/17 07:31:08;;;;;;;;;;;10.00;99.90;;;;;;5006862;28;19967;-72
2021/10/17 07:33:35;;;;;;;;;;;10.10;99.90;;;;;;5005349;28;20107;-73
2021/10/17 07:36:02;;;;;;;;;;;10.30;99.90;;;;;;5010192;28;20334;-73
2021/10/17 07:38:30;;;;;;;;;;;10.50;99.90;;;;;;5007825;28;20370;-73
2021/10/17 07:40:57;;;;;;;;;;;10.70;99.90;;;;;;5009502;28;19961;-73
2021/10/17 07:43:24;;;;;;;;;;;10.90;99.90;;;;;;5007484;28;19959;-72
2021/10/17 07:45:50;;;;;;;;;;;10.90;99.90;;;;;;5009135;28;19959;-72
2021/10/17 07:48:17;;;;;;;;;;;11.10;99.90;;;;;;5007537;28;19957;-72
2021/10/17 07:50:44;;;;;;;;;;;11.30;99.90;;;;;;4990609;28;19956;-72
2021/10/17 07:53:10;;;;;;;;;;;12.10;99.90;;;;;;5003147;28;19973;-72
2021/10/17 07:55:38;;;;;;;;;;;13.30;99.90;;;;;;5007169;28;20387;-72
2021/10/17 07:58:05;;;;;;;;;;;14.30;98.50;;;;;;4990401;28;20439;-72
2021/10/17 08:00:32;;;;;;;;;;;15.10;96.20;;;;;;4989445;28;20067;-71
2021/10/17 08:02:58;;;;;;;;;;;15.30;93.90;;;;;;5000040;28;20056;-71
2021/10/17 08:05:25;;;;;;;;;;;15.20;93.40;;;;;;5017561;28;19988;-72
2021/10/17 08:07:53;;;;;;;;;;;15.90;92.80;;;;;;5007458;28;19943;-72
2021/10/17 08:10:20;;;;;;;;;;;17.10;91.70;;;;;;5008912;28;20096;-73
2021/10/17 08:12:48;;;;;;;;;;;18.70;86.00;;;;;;5000384;28;19967;-73
2021/10/17 08:15:14;;;;;;;;;;;19.10;74.80;;;;;;4992716;28;19947;-73
2021/10/17 08:17:41;;;;;;;;;;;18.40;71.90;;;;;;4993319;28;19936;-73
2021/10/17 08:20:08;;;;;;;;;;;17.80;73.00;;;;;;5001740;28;20294;-73
2021/10/17 08:22:36;;;;;;;;;;;16.90;74.40;;;;;;5009410;28;19942;-73
2021/10/17 08:25:03;;;;;;;;;;;16.10;77.80;;;;;;5012183;28;19950;-73
2021/10/17 08:27:29;;;;;;;;;;;16.60;78.40;;;;;;5010574;28;19981;-73
2021/10/17 08:29:57;;;;;;;;;;;16.90;77.90;;;;;;5007948;28;19939;-73
2021/10/17 08:32:24;;;;;;;;;;;17.90;74.90;;;;;;4998026;28;20314;-73
2021/10/17 08:34:51;;;;;;;;;;;18.80;70.30;;;;;;5012024;28;19954;-73
2021/10/17 08:37:18;;;;;;;;;;;18.60;68.90;;;;;;5010533;28;19970;-73
2021/10/17 08:39:44;;;;;;;;;;;19.30;67.30;;;;;;5012056;28;20334;-73
2021/10/17 08:42:11;;;;;;;;;;;19.40;63.70;;;;;;5010087;28;19967;-73
2021/10/17 08:44:39;;;;;;;;;;;19.30;62.30;;;;;;5011802;28;19960;-73
2021/10/17 08:47:08;;;;;;;;;;;19.00;62.30;;;;;;5009998;28;19953;-71
2021/10/17 08:49:34;;;;;;;;;;;18.60;61.70;;;;;;5005195;28;19953;-73
2021/10/17 08:52:01;;;;;;;;;;;17.90;64.00;;;;;;4991968;28;19966;-73
2021/10/17 08:54:28;;;;;;;;;;;17.30;66.00;;;;;;4991819;28;19977;-73
2021/10/17 08:56:54;;;;;;;;;;;17.20;67.80;;;;;;4994121;28;19963;-72
2021/10/17 08:59:21;;;;;;;;;;;17.10;66.60;;;;;;5011939;28;19977;-72
2021/10/17 09:01:48;;;;;;;;;;;16.30;69.40;;;;;;5009758;28;20032;-72
2021/10/17 09:04:17;;;;;;;;;;;15.60;73.10;;;;;;5011167;28;19956;-72
2021/10/17 09:06:46;;;;;;;;;;;15.30;75.00;;;;;;5009271;28;20353;-73
2021/10/17 09:09:15;;;;;;;;;;;15.30;75.70;;;;;;5007540;28;19961;-72
2021/10/17 09:11:43;;;;;;;;;;;15.20;76.60;;;;;;5007937;28;19956;-73
2021/10/17 09:14:12;;;;;;;;;;;14.90;76.40;;;;;;4992850;28;20351;-73
2021/10/17 09:16:39;;;;;;;;;;;14.80;77.80;;;;;;4991354;28;20408;-73
2021/10/17 09:19:07;;;;;;;;;;;14.60;78.30;;;;;;4992119;28;20412;-73
2021/10/17 09:21:35;;;;;;;;;;;14.30;78.90;;;;;;4992017;28;19961;-73
2021/10/17 09:24:02;;;;;;;;;;;14.10;79.80;;;;;;4991597;28;20412;-73
2021/10/17 09:26:28;;;;;;;;;;;14.10;80.90;;;;;;4990697;28;19957;-73
2021/10/17 09:28:55;;;;;;;;;;;14.10;79.80;;;;;;5002864;28;19953;-73
2021/10/17 09:31:22;;;;;;;;;;;14.00;80.50;;;;;;4991421;28;19991;-72
2021/10/17 09:33:50;;;;;;;;;;;14.10;81.10;;;;;;5008639;28;19980;-73
2021/10/17 09:36:18;;;;;;;;;;;14.10;79.60;;;;;;5010492;28;19976;-72
2021/10/17 09:38:48;;;;;;;;;;;14.00;80.90;;;;;;5007264;28;20442;-73
2021/10/17 09:41:15;;;;;;;;;;;14.00;81.10;;;;;;5010718;28;19982;-73
2021/10/17 09:43:43;;;;;;;;;;;14.10;81.80;;;;;;4993624;28;19958;-72
2021/10/17 09:46:11;;;;;;;;;;;14.10;81.70;;;;;;4991248;28;19949;-73
2021/10/17 09:48:38;;;;;;;;;;;14.20;81.80;;;;;;5007364;28;20400;-72
2021/10/17 09:51:05;;;;;;;;;;;14.20;82.50;;;;;;5001746;28;19939;-71
2021/10/17 09:53:41;;;;;;;;;;;14.20;82.90;;;;;;4991340;28;19972;-72
2021/10/17 09:56:10;;;;;;;;;;;14.20;83.50;;;;;;4994982;28;20535;-72
2021/10/17 09:58:36;;;;;;;;;;;14.30;84.20;;;;;;5002664;28;19974;-72
2021/10/17 10:01:03;;;;;;;;;;;14.30;83.60;;;;;;4993336;28;19951;-72
2021/10/17 10:03:31;;;;;;;;;;;14.40;83.70;;;;;;5000130;28;20427;-72
2021/10/17 10:05:58;;;;;;;;;;;14.60;83.00;;;;;;5003207;28;20037;-72
2021/10/17 10:08:26;;;;;;;;;;;14.70;83.30;;;;;;4990674;28;19967;-72
2021/10/17 10:10:53;;;;;;;;;;;14.70;81.10;;;;;;4997397;28;19961;-71
2021/10/17 10:13:21;;;;;;;;;;;14.60;82.50;;;;;;4996115;28;19976;-71
2021/10/17 10:15:48;;;;;;;;;;;14.60;81.80;;;;;;4992750;28;20434;-71
2021/10/17 10:18:16;;;;;;;;;;;14.70;82.40;;;;;;4997647;28;20313;-72
2021/10/17 10:20:43;;;;;;;;;;;14.50;82.20;;;;;;4997869;28;20351;-72
2021/10/17 10:23:11;;;;;;;;;;;14.40;83.60;;;;;;4996016;28;20334;-72
2021/10/17 10:25:38;;;;;;;;;;;14.40;85.00;;;;;;4989626;28;19964;-72
2021/10/17 10:28:07;;;;;;;;;;;14.50;84.70;;;;;;4994251;28;19958;-72
2021/10/17 10:30:38;;;;;;;;;;;14.50;85.40;;;;;;4996576;28;19963;-73
2021/10/17 10:33:12;;;;;;;;;;;14.70;84.80;;;;;;4995526;28;19983;-73
2021/10/17 10:35:54;;;;;;;;;;;14.80;83.60;;;;;;4990618;28;19983;-73
2021/10/17 10:38:44;;;;;;;;;;;14.80;83.00;;;;;;4998426;28;19955;-73
2021/10/17 10:41:16;;;;;;;;;;;14.90;83.60;;;;;;4995964;28;20361;-73
2021/10/17 10:43:43;;;;;;;;;;;15.10;82.70;;;;;;4995712;28;20331;-74
2021/10/17 10:46:10;;;;;;;;;;;15.00;82.40;;;;;;4991126;28;20039;-73
2021/10/17 10:48:46;;;;;;;;;;;15.00;82.40;;;;;;5000387;28;20058;-74
2021/10/17 10:51:32;;;;;;;;;;;15.10;82.80;;;;;;5003476;28;19982;-74
2021/10/17 10:54:00;;;;;;;;;;;15.20;82.50;;;;;;4995709;28;19973;-72
2021/10/17 10:56:45;;;;;;;;;;;15.00;81.80;;;;;;4982441;22;19976;-72
2021/10/17 10:59:12;;;;;;;;;;;14.80;82.20;;;;;;5006196;28;19981;-72
2021/10/17 11:02:00;;;;;;;;;;;14.90;82.00;;;;;;4965198;28;20449;-72
2021/10/17 11:05:00;;;;;;;;;;;14.90;80.90;;;;;;4973381;28;20328;-72
2021/10/17 11:07:31;;;;;;;;;;;15.10;81.50;;;;;;4973079;28;21732;-73
2021/10/17 11:10:19;;;;;;;;;;;15.40;80.50;;;;;;4962437;28;20049;-73
2021/10/17 11:12:46;;;;;;;;;;;15.50;80.30;;;;;;4971174;28;19979;-73
2021/10/17 11:15:14;;;;;;;;;;;15.80;79.30;;;;;;4957137;28;20025;-73
2021/10/17 11:17:47;;;;;;;;;;;15.90;77.50;;;;;;4957563;28;19959;-73
2021/10/17 11:20:16;;;;;;;;;;;15.80;77.30;;;;;;4976973;28;19956;-74
2021/10/17 11:22:43;;;;;;;;;;;15.90;78.30;;;;;;4950788;28;19959;-73
2021/10/17 11:25:13;;;;;;;;;;;16.00;77.70;;;;;;4956859;28;19961;-73
2021/10/17 11:27:40;;;;;;;;;;;15.90;76.30;;;;;;4957910;28;20054;-74
2021/10/17 11:30:18;;;;;;;;;;;15.90;75.80;;;;;;4974973;28;19984;-75
2021/10/17 11:32:45;;;;;;;;;;;16.00;77.10;;;;;;4961079;28;19996;-73
2021/10/17 11:35:11;;;;;;;;;;;16.20;77.00;;;;;;5033117;23;19975;-73
2021/10/17 11:37:38;;;;;;;;;;;16.30;76.50;;;;;;5089579;28;20043;-73
2021/10/17 11:40:08;;;;;;;;;;;16.20;76.50;;;;;;5097033;28;20397;-73
2021/10/17 11:42:44;;;;;;;;;;;16.10;76.40;;;;;;5112430;28;20041;-73
2021/10/17 11:45:16;;;;;;;;;;;16.20;77.90;;;;;;5104800;28;19967;-72
2021/10/17 11:47:43;;;;;;;;;;;16.10;77.60;;;;;;5112447;28;20049;-73
2021/10/17 11:50:10;;;;;;;;;;;16.10;77.50;;;;;;5112861;28;19951;-73
2021/10/17 11:52:36;;;;;;;;;;;16.10;78.10;;;;;;5114331;28;19963;-73
2021/10/17 11:55:03;;;;;;;;;;;16.00;77.00;;;;;;5113092;28;20009;-73
2021/10/17 11:57:31;;;;;;;;;;;16.00;77.60;;;;;;5098545;28;19971;-73
2021/10/17 12:00:00;;;;;;;;;;;16.10;77.10;;;;;;5087836;28;19956;-73
2021/10/17 12:02:33;;;;;;;;;;;16.10;77.10;;;;;;5079686;28;19996;-73
2021/10/17 12:04:59;;;;;;;;;;;16.20;77.60;;;;;;5087865;28;19941;-73
2021/10/17 12:07:26;;;;;;;;;;;16.20;74.40;;;;;;5116445;28;19959;-73
2021/10/17 12:09:54;;;;;;;;;;;16.10;74.90;;;;;;5109348;28;20032;-73
2021/10/17 12:12:22;;;;;;;;;;;16.10;75.40;;;;;;5094555;28;19968;-73
2021/10/17 12:15:01;;;;;;;;;;;16.10;74.70;;;;;;5098886;28;19974;-73
2021/10/17 12:17:27;;;;;;;;;;;16.10;73.60;;;;;;5115887;28;20022;-73
2021/10/17 12:19:59;;;;;;;;;;;16.00;74.30;;;;;;5112356;28;19949;-73
2021/10/17 12:22:25;;;;;;;;;;;15.90;75.10;;;;;;5113961;28;20047;-73
2021/10/17 12:24:52;;;;;;;;;;;15.90;75.00;;;;;;5101084;28;19958;-73
2021/10/17 12:27:30;;;;;;;;;;;16.00;74.60;;;;;;5094870;28;19954;-73
2021/10/17 12:30:04;;;;;;;;;;;16.00;74.80;;;;;;5087855;28;20332;-73
2021/10/17 12:32:41;;;;;;;;;;;15.90;72.80;;;;;;5115465;28;19965;-73
2021/10/17 12:35:14;;;;;;;;;;;16.00;73.60;;;;;;5112267;28;19976;-73
2021/10/17 12:37:41;;;;;;;;;;;16.00;72.40;;;;;;5115454;28;19966;-73
2021/10/17 12:40:09;;;;;;;;;;;16.00;73.50;;;;;;5112167;28;19973;-73
2021/10/17 12:42:43;;;;;;;;;;;16.10;74.50;;;;;;5115429;28;20053;-73
2021/10/17 12:45:12;;;;;;;;;;;16.20;74.50;;;;;;5103740;28;20443;-73
2021/10/17 12:47:39;;;;;;;;;;;16.20;71.60;;;;;;5094552;28;19957;-73
2021/10/17 12:50:12;;;;;;;;;;;16.20;71.00;;;;;;5100374;28;19963;-73
2021/10/17 12:52:39;;;;;;;;;;;16.20;70.80;;;;;;5103977;28;19963;-73
2021/10/17 12:55:06;;;;;;;;;;;16.10;68.70;;;;;;5093845;28;19973;-73
2021/10/17 12:57:33;;;;;;;;;;;16.00;68.70;;;;;;5093978;28;19965;-74
2021/10/17 13:00:01;;;;;;;;;;;16.00;67.80;;;;;;5087931;28;19989;-73
2021/10/17 13:02:36;;;;;;;;;;;15.90;69.20;;;;;;5115072;28;20464;-72
2021/10/17 13:05:07;;;;;;;;;;;15.90;69.70;;;;;;5107601;28;19979;-73
2021/10/17 13:07:35;;;;;;;;;;;16.00;67.80;;;;;;5074626;28;19977;-72
2021/10/17 13:10:03;;;;;;;;;;;16.00;69.00;;;;;;5087915;28;19956;-73
2021/10/17 13:12:30;;;;;;;;;;;16.00;68.00;;;;;;5115294;28;19962;-73
2021/10/17 13:14:58;;;;;;;;;;;16.00;68.40;;;;;;5105903;28;19972;-73
2021/10/17 13:17:25;;;;;;;;;;;16.00;69.20;;;;;;5094341;28;19963;-73
2021/10/17 13:19:53;;;;;;;;;;;16.00;70.00;;;;;;5097914;28;20411;-73
2021/10/17 13:22:20;;;;;;;;;;;15.80;68.20;;;;;;5092054;28;20371;-74
2021/10/17 13:24:47;;;;;;;;;;;15.80;68.10;;;;;;5082562;28;19954;-73
2021/10/17 13:27:13;;;;;;;;;;;15.70;67.70;;;;;;5114531;28;19963;-73
2021/10/17 13:29:40;;;;;;;;;;;15.80;68.30;;;;;;5110786;28;19992;-73
2021/10/17 13:32:07;;;;;;;;;;;15.80;68.70;;;;;;5113963;28;20476;-73
2021/10/17 13:34:34;;;;;;;;;;;15.80;68.50;;;;;;5102694;28;19973;-73
2021/10/17 13:37:02;;;;;;;;;;;15.70;68.50;;;;;;5114188;28;19967;-73
2021/10/17 13:39:28;;;;;;;;;;;15.70;68.80;;;;;;5111140;28;20047;-73
2021/10/17 13:41:55;;;;;;;;;;;15.70;69.30;;;;;;5114013;28;19993;-73
2021/10/17 13:44:22;;;;;;;;;;;15.80;69.50;;;;;;5110553;28;19972;-73
2021/10/17 13:46:48;;;;;;;;;;;15.70;69.80;;;;;;5114118;28;19959;-74
2021/10/17 13:49:15;;;;;;;;;;;15.80;69.80;;;;;;5110308;28;19962;-74
2021/10/17 13:51:42;;;;;;;;;;;15.90;69.50;;;;;;5092021;28;20413;-73
2021/10/17 13:54:11;;;;;;;;;;;15.80;69.80;;;;;;5111911;28;19977;-73
2021/10/17 13:56:38;;;;;;;;;;;15.90;69.30;;;;;;5111272;28;19978;-74
2021/10/17 13:59:05;;;;;;;;;;;16.00;69.60;;;;;;5091590;28;19959;-73
2021/10/17 14:01:32;;;;;;;;;;;16.00;68.70;;;;;;5098271;28;19956;-73
2021/10/17 14:03:58;;;;;;;;;;;16.10;68.60;;;;;;5093760;28;19949;-73
2021/10/17 14:06:25;;;;;;;;;;;16.10;68.00;;;;;;5110346;28;19961;-74
2021/10/17 14:08:51;;;;;;;;;;;16.00;68.50;;;;;;5113865;28;19951;-73
2021/10/17 14:11:19;;;;;;;;;;;16.00;69.80;;;;;;5110091;28;19968;-73
2021/10/17 14:13:46;;;;;;;;;;;16.00;70.30;;;;;;5105947;28;19956;-73
2021/10/17 14:16:13;;;;;;;;;;;16.00;71.00;;;;;;5110555;28;20115;-73
2021/10/17 14:18:42;;;;;;;;;;;16.00;70.40;;;;;;5113239;28;20522;-73
2021/10/17 14:21:09;;;;;;;;;;;16.00;71.80;;;;;;5108281;28;19964;-73
2021/10/17 14:23:35;;;;;;;;;;;16.10;71.50;;;;;;5073107;28;19986;-74
2021/10/17 14:26:02;;;;;;;;;;;16.00;71.70;;;;;;5088320;28;20361;-73